sensor_id;sensor_type;location;lat;lon;timestamp;temperature;humidity
19025;DHT22;9645;51.448;6.260;2023-03-14T00:00:27;11.60;99.90
19025;DHT22;9645;51.448;6.260;2023-03-14T00:02:54;11.60;99.90
19025;DHT22;9645;51.448;6.260;2023-03-14T00:05:21;11.70;99.90
19025;DHT22;9645;51.448;6.260;2023-03-14T00:07:48;11.70;99.90
19025;DHT22;9645;51.448;6.260;2023-03-14T00:10:15;11.70;99.90
19025;DHT22;9645;51.448;6.260;2023-03-14T00:12:43;11.80;99.90
19025;DHT22;9645;51.448;6.260;2023-03-14T00:15:12;11.80;99.90
19025;DHT22;9645;51.448;6.260;2023-03-14T00:17:40;11.80;99.90
19025;DHT22;9645;51.448;6.260;2023-03-14T00:20:10;11.80;99.90
19025;DHT22;9645;51.448;6.260;2023-03-14T00:22:37;11.80;99.90
19025;DHT22;9645;51.448;6.260;2023-03-14T00:25:06;11.70;99.90
19025;DHT22;9645;51.448;6.260;2023-03-14T00:27:34;11.70;99.90
19025;DHT22;9645;51.448;6.260;2023-03-14T00:30:02;11.70;99.90
19025;DHT22;9645;51.448;6.260;2023-03-14T00:32:33;11.70;99.90
19025;DHT22;9645;51.448;6.260;2023-03-14T00:35:04;11.60;99.90
19025;DHT22;9645;51.448;6.260;2023-03-14T00:37:31;11.60;99.90
19025;DHT22;9645;51.448;6.260;2023-03-14T00:39:58;11.60;99.90
19025;DHT22;9645;51.448;6.260;2023-03-14T00:42:25;11.60;99.90
19025;DHT22;9645;51.448;6.260;2023-03-14T00:44:53;11.50;99.90
19025;DHT22;9645;51.448;6.260;2023-03-14T00:47:19;11.50;99.90
19025;DHT22;9645;51.448;6.260;2023-03-14T00:49:48;11.40;99.90
19025;DHT22;9645;51.448;6.260;2023-03-14T00:52:15;11.40;99.90
19025;DHT22;9645;51.448;6.260;2023-03-14T00:54:42;11.30;99.90
19025;DHT22;9645;51.448;6.260;2023-03-14T00:57:09;11.30;99.90
19025;DHT22;9645;51.448;6.260;2023-03-14T00:59:36;11.20;99.90
19025;DHT22;9645;51.448;6.260;2023-03-14T01:04:30;11.00;99.90
19025;DHT22;9645;51.448;6.260;2023-03-14T01:06:58;10.90;99.90
19025;DHT22;9645;51.448;6.260;2023-03-14T01:11:52;10.90;99.90
19025;DHT22;9645;51.448;6.260;2023-03-14T01:14:19;10.80;99.90
19025;DHT22;9645;51.448;6.260;2023-03-14T01:16:46;10.70;99.90
19025;DHT22;9645;51.448;6.260;2023-03-14T01:19:13;10.70;99.90
19025;DHT22;9645;51.448;6.260;2023-03-14T01:21:40;10.80;99.90
19025;DHT22;9645;51.448;6.260;2023-03-14T01:24:11;10.70;99.90
19025;DHT22;9645;51.448;6.260;2023-03-14T01:26:38;10.70;99.90
19025;DHT22;9645;51.448;6.260;2023-03-14T01:29:05;10.60;99.90
19025;DHT22;9645;51.448;6.260;2023-03-14T01:31:32;10.60;99.90
19025;DHT22;9645;51.448;6.260;2023-03-14T01:33:59;10.50;99.90
19025;DHT22;9645;51.448;6.260;2023-03-14T01:36:26;10.50;99.90
19025;DHT22;9645;51.448;6.260;2023-03-14T01:38:53;10.40;99.90
19025;DHT22;9645;51.448;6.260;2023-03-14T01:41:23;10.40;99.90
19025;DHT22;9645;51.448;6.260;2023-03-14T01:43:50;10.30;99.90
19025;DHT22;9645;51.448;6.260;2023-03-14T01:46:34;10.30;99.90
19025;DHT22;9645;51.448;6.260;2023-03-14T01:49:07;10.20;99.90
19025;DHT22;9645;51.448;6.260;2023-03-14T01:51:41;10.10;99.90
19025;DHT22;9645;51.448;6.260;2023-03-14T01:54:14;10.10;99.90
19025;DHT22;9645;51.448;6.260;2023-03-14T01:56:46;10.00;99.90
19025;DHT22;9645;51.448;6.260;2023-03-14T01:59:13;10.00;99.90
19025;DHT22;9645;51.448;6.260;2023-03-14T02:01:43;9.90;99.90
19025;DHT22;9645;51.448;6.260;2023-03-14T02:04:11;9.90;99.90
19025;DHT22;9645;51.448;6.260;2023-03-14T02:06:46;9.90;99.90
19025;DHT22;9645;51.448;6.260;2023-03-14T02:09:14;9.90;99.90
19025;DHT22;9645;51.448;6.260;2023-03-14T02:11:42;9.80;99.90
19025;DHT22;9645;51.448;6.260;2023-03-14T02:14:16;9.80;99.90
19025;DHT22;9645;51.448;6.260;2023-03-14T02:16:44;9.70;99.90
19025;DHT22;9645;51.448;6.260;2023-03-14T02:19:12;9.70;99.90
19025;DHT22;9645;51.448;6.260;2023-03-14T02:21:45;9.70;99.90
19025;DHT22;9645;51.448;6.260;2023-03-14T02:24:20;9.20;99.90
19025;DHT22;9645;51.448;6.260;2023-03-14T02:27:09;9.60;99.90
19025;DHT22;9645;51.448;6.260;2023-03-14T02:29:41;9.60;99.90
19025;DHT22;9645;51.448;6.260;2023-03-14T02:32:11;9.60;99.90
19025;DHT22;9645;51.448;6.260;2023-03-14T02:34:38;9.50;99.90
19025;DHT22;9645;51.448;6.260;2023-03-14T02:37:06;9.50;99.90
19025;DHT22;9645;51.448;6.260;2023-03-14T02:39:38;9.50;99.90
19025;DHT22;9645;51.448;6.260;2023-03-14T02:42:07;9.50;99.90
19025;DHT22;9645;51.448;6.260;2023-03-14T02:44:34;9.60;99.90
19025;DHT22;9645;51.448;6.260;2023-03-14T02:47:03;9.60;99.90
19025;DHT22;9645;51.448;6.260;2023-03-14T02:49:32;9.60;99.90
19025;DHT22;9645;51.448;6.260;2023-03-14T02:52:00;9.60;99.90
19025;DHT22;9645;51.448;6.260;2023-03-14T02:54:27;9.60;99.90
19025;DHT22;9645;51.448;6.260;2023-03-14T02:56:54;9.60;99.90
19025;DHT22;9645;51.448;6.260;2023-03-14T02:59:22;9.60;99.90
19025;DHT22;9645;51.448;6.260;2023-03-14T03:01:49;9.60;99.90
19025;DHT22;9645;51.448;6.260;2023-03-14T03:04:16;9.70;99.90
19025;DHT22;9645;51.448;6.260;2023-03-14T03:06:43;9.70;99.90
19025;DHT22;9645;51.448;6.260;2023-03-14T03:09:10;9.80;99.90
19025;DHT22;9645;51.448;6.260;2023-03-14T03:11:37;9.90;99.90
19025;DHT22;9645;51.448;6.260;2023-03-14T03:14:04;9.90;99.90
19025;DHT22;9645;51.448;6.260;2023-03-14T03:16:32;9.90;99.90
19025;DHT22;9645;51.448;6.260;2023-03-14T03:18:59;9.90;99.90
19025;DHT22;9645;51.448;6.260;2023-03-14T03:21:26;10.00;99.90
19025;DHT22;9645;51.448;6.260;2023-03-14T03:23:53;10.00;99.90
19025;DHT22;9645;51.448;6.260;2023-03-14T03:26:20;10.10;99.90
19025;DHT22;9645;51.448;6.260;2023-03-14T03:28:46;10.10;99.90
19025;DHT22;9645;51.448;6.260;2023-03-14T03:31:14;10.10;99.90
19025;DHT22;9645;51.448;6.260;2023-03-14T03:33:42;10.20;99.90
19025;DHT22;9645;51.448;6.260;2023-03-14T03:36:10;10.20;99.90
19025;DHT22;9645;51.448;6.260;2023-03-14T03:38:37;10.30;99.90
19025;DHT22;9645;51.448;6.260;2023-03-14T03:41:05;10.30;99.90
19025;DHT22;9645;51.448;6.260;2023-03-14T03:43:32;10.20;99.90
19025;DHT22;9645;51.448;6.260;2023-03-14T03:46:03;10.30;99.90
19025;DHT22;9645;51.448;6.260;2023-03-14T03:48:30;10.30;99.90
19025;DHT22;9645;51.448;6.260;2023-03-14T03:50:58;10.30;99.90
19025;DHT22;9645;51.448;6.260;2023-03-14T03:53:25;10.30;99.90
19025;DHT22;9645;51.448;6.260;2023-03-14T03:55:52;9.40;99.90
19025;DHT22;9645;51.448;6.260;2023-03-14T03:58:19;10.20;99.90
19025;DHT22;9645;51.448;6.260;2023-03-14T04:00:46;10.30;99.90
19025;DHT22;9645;51.448;6.260;2023-03-14T04:03:13;10.30;99.90
19025;DHT22;9645;51.448;6.260;2023-03-14T04:05:40;10.30;99.90
19025;DHT22;9645;51.448;6.260;2023-03-14T04:08:08;10.50;99.90
19025;DHT22;9645;51.448;6.260;2023-03-14T04:10:35;10.30;99.90
19025;DHT22;9645;51.448;6.260;2023-03-14T04:13:02;10.30;99.90
19025;DHT22;9645;51.448;6.260;2023-03-14T04:15:29;10.30;99.90
19025;DHT22;9645;51.448;6.260;2023-03-14T04:17:57;10.20;99.90
19025;DHT22;9645;51.448;6.260;2023-03-14T04:20:24;10.20;99.90
19025;DHT22;9645;51.448;6.260;2023-03-14T04:22:51;10.10;99.90
19025;DHT22;9645;51.448;6.260;2023-03-14T04:25:19;10.00;99.90
19025;DHT22;9645;51.448;6.260;2023-03-14T04:27:47;9.90;99.90
19025;DHT22;9645;51.448;6.260;2023-03-14T04:30:14;9.90;99.90
19025;DHT22;9645;51.448;6.260;2023-03-14T04:32:41;9.80;99.90
19025;DHT22;9645;51.448;6.260;2023-03-14T04:35:08;9.70;99.90
19025;DHT22;9645;51.448;6.260;2023-03-14T04:37:35;9.60;99.90
19025;DHT22;9645;51.448;6.260;2023-03-14T04:40:02;9.50;99.90
19025;DHT22;9645;51.448;6.260;2023-03-14T04:42:33;9.40;99.90
19025;DHT22;9645;51.448;6.260;2023-03-14T04:45:00;9.30;99.90
19025;DHT22;9645;51.448;6.260;2023-03-14T04:47:27;8.20;99.90
19025;DHT22;9645;51.448;6.260;2023-03-14T04:49:54;9.20;99.90
19025;DHT22;9645;51.448;6.260;2023-03-14T04:52:21;9.10;99.90
19025;DHT22;9645;51.448;6.260;2023-03-14T04:54:48;9.00;99.90
19025;DHT22;9645;51.448;6.260;2023-03-14T04:57:15;8.90;99.90
19025;DHT22;9645;51.448;6.260;2023-03-14T04:59:43;8.80;99.90
19025;DHT22;9645;51.448;6.260;2023-03-14T05:02:10;8.90;99.90
19025;DHT22;9645;51.448;6.260;2023-03-14T05:04:37;8.80;99.90
19025;DHT22;9645;51.448;6.260;2023-03-14T05:07:04;8.80;99.90
19025;DHT22;9645;51.448;6.260;2023-03-14T05:09:31;8.70;99.90
19025;DHT22;9645;51.448;6.260;2023-03-14T05:11:58;8.70;99.90
19025;DHT22;9645;51.448;6.260;2023-03-14T05:14:25;8.70;99.90
19025;DHT22;9645;51.448;6.260;2023-03-14T05:16:53;8.70;99.90
19025;DHT22;9645;51.448;6.260;2023-03-14T05:19:20;8.70;99.90
19025;DHT22;9645;51.448;6.260;2023-03-14T05:21:47;8.70;99.90
19025;DHT22;9645;51.448;6.260;2023-03-14T05:24:14;8.80;99.90
19025;DHT22;9645;51.448;6.260;2023-03-14T05:26:41;8.80;99.90
19025;DHT22;9645;51.448;6.260;2023-03-14T05:29:08;8.80;99.90
19025;DHT22;9645;51.448;6.260;2023-03-14T05:31:35;8.70;99.90
19025;DHT22;9645;51.448;6.260;2023-03-14T05:34:03;8.80;99.90
19025;DHT22;9645;51.448;6.260;2023-03-14T05:36:30;8.70;99.90
19025;DHT22;9645;51.448;6.260;2023-03-14T05:38:57;8.70;99.90
19025;DHT22;9645;51.448;6.260;2023-03-14T05:41:24;8.70;99.90
19025;DHT22;9645;51.448;6.260;2023-03-14T05:43:51;8.80;99.90
19025;DHT22;9645;51.448;6.260;2023-03-14T05:46:17;8.80;99.90
19025;DHT22;9645;51.448;6.260;2023-03-14T05:48:44;8.80;99.90
19025;DHT22;9645;51.448;6.260;2023-03-14T05:51:13;8.90;99.90
19025;DHT22;9645;51.448;6.260;2023-03-14T05:53:40;8.90;99.90
19025;DHT22;9645;51.448;6.260;2023-03-14T05:56:07;9.00;99.90
19025;DHT22;9645;51.448;6.260;2023-03-14T05:58:35;9.00;99.90
19025;DHT22;9645;51.448;6.260;2023-03-14T06:01:02;9.00;99.90
19025;DHT22;9645;51.448;6.260;2023-03-14T06:03:30;9.00;99.90
19025;DHT22;9645;51.448;6.260;2023-03-14T06:05:57;9.00;99.90
19025;DHT22;9645;51.448;6.260;2023-03-14T06:08:25;9.10;99.90
19025;DHT22;9645;51.448;6.260;2023-03-14T06:10:53;9.10;99.90
19025;DHT22;9645;51.448;6.260;2023-03-14T06:13:20;9.20;99.90
19025;DHT22;9645;51.448;6.260;2023-03-14T06:15:47;9.20;99.90
19025;DHT22;9645;51.448;6.260;2023-03-14T06:18:14;9.20;99.90
19025;DHT22;9645;51.448;6.260;2023-03-14T06:20:41;9.20;99.90
19025;DHT22;9645;51.448;6.260;2023-03-14T06:23:09;9.20;99.90
19025;DHT22;9645;51.448;6.260;2023-03-14T06:25:37;9.20;99.90
19025;DHT22;9645;51.448;6.260;2023-03-14T06:28:04;9.20;99.90
19025;DHT22;9645;51.448;6.260;2023-03-14T06:30:31;9.20;99.90
19025;DHT22;9645;51.448;6.260;2023-03-14T06:32:58;9.30;99.90
19025;DHT22;9645;51.448;6.260;2023-03-14T06:35:25;9.30;99.90
19025;DHT22;9645;51.448;6.260;2023-03-14T06:37:52;9.30;99.90
19025;DHT22;9645;51.448;6.260;2023-03-14T06:40:19;9.30;99.90
19025;DHT22;9645;51.448;6.260;2023-03-14T06:42:47;9.30;99.90
19025;DHT22;9645;51.448;6.260;2023-03-14T06:45:15;9.30;99.90
19025;DHT22;9645;51.448;6.260;2023-03-14T06:47:42;9.30;99.90
19025;DHT22;9645;51.448;6.260;2023-03-14T06:50:10;9.30;99.90
19025;DHT22;9645;51.448;6.260;2023-03-14T06:52:37;9.30;99.90
19025;DHT22;9645;51.448;6.260;2023-03-14T06:55:07;9.30;99.90
19025;DHT22;9645;51.448;6.260;2023-03-14T06:57:34;9.30;99.90
19025;DHT22;9645;51.448;6.260;2023-03-14T07:00:03;10.10;99.90
19025;DHT22;9645;51.448;6.260;2023-03-14T07:02:30;9.40;99.90
19025;DHT22;9645;51.448;6.260;2023-03-14T07:04:57;9.40;99.90
19025;DHT22;9645;51.448;6.260;2023-03-14T07:07:24;9.40;99.90
19025;DHT22;9645;51.448;6.260;2023-03-14T07:09:51;9.50;99.90
19025;DHT22;9645;51.448;6.260;2023-03-14T07:12:18;9.50;99.90
19025;DHT22;9645;51.448;6.260;2023-03-14T07:14:45;9.50;99.90
19025;DHT22;9645;51.448;6.260;2023-03-14T07:17:14;9.50;99.90
19025;DHT22;9645;51.448;6.260;2023-03-14T07:19:41;9.50;99.90
19025;DHT22;9645;51.448;6.260;2023-03-14T07:22:08;9.60;99.90
19025;DHT22;9645;51.448;6.260;2023-03-14T07:24:35;9.60;99.90
19025;DHT22;9645;51.448;6.260;2023-03-14T07:27:02;9.60;99.90
19025;DHT22;9645;51.448;6.260;2023-03-14T07:29:29;9.60;99.90
19025;DHT22;9645;51.448;6.260;2023-03-14T07:31:56;9.70;99.90
19025;DHT22;9645;51.448;6.260;2023-03-14T07:34:24;9.70;99.90
19025;DHT22;9645;51.448;6.260;2023-03-14T07:36:51;10.60;99.90
19025;DHT22;9645;51.448;6.260;2023-03-14T07:39:18;9.90;99.90
19025;DHT22;9645;51.448;6.260;2023-03-14T07:41:45;10.00;99.90
19025;DHT22;9645;51.448;6.260;2023-03-14T07:44:12;10.10;99.90
19025;DHT22;9645;51.448;6.260;2023-03-14T07:46:39;10.20;99.90
19025;DHT22;9645;51.448;6.260;2023-03-14T07:49:06;10.30;99.90
19025;DHT22;9645;51.448;6.260;2023-03-14T07:51:34;10.30;99.90
19025;DHT22;9645;51.448;6.260;2023-03-14T07:54:01;10.40;99.90
19025;DHT22;9645;51.448;6.260;2023-03-14T07:56:28;10.40;99.90
19025;DHT22;9645;51.448;6.260;2023-03-14T07:58:56;10.30;99.90
19025;DHT22;9645;51.448;6.260;2023-03-14T08:01:23;10.30;99.90
19025;DHT22;9645;51.448;6.260;2023-03-14T08:03:50;10.40;99.90
19025;DHT22;9645;51.448;6.260;2023-03-14T08:06:17;10.40;99.90
19025;DHT22;9645;51.448;6.260;2023-03-14T08:08:45;10.50;99.90
19025;DHT22;9645;51.448;6.260;2023-03-14T08:11:13;10.50;99.90
19025;DHT22;9645;51.448;6.260;2023-03-14T08:13:40;10.60;99.90
19025;DHT22;9645;51.448;6.260;2023-03-14T08:16:08;10.60;99.90
19025;DHT22;9645;51.448;6.260;2023-03-14T08:18:35;10.50;99.90
19025;DHT22;9645;51.448;6.260;2023-03-14T08:21:02;10.60;99.90
19025;DHT22;9645;51.448;6.260;2023-03-14T08:23:29;10.70;99.90
19025;DHT22;9645;51.448;6.260;2023-03-14T08:25:57;10.70;99.90
19025;DHT22;9645;51.448;6.260;2023-03-14T08:28:24;10.70;99.90
19025;DHT22;9645;51.448;6.260;2023-03-14T08:30:56;10.70;99.90
19025;DHT22;9645;51.448;6.260;2023-03-14T08:33:23;10.60;99.90
19025;DHT22;9645;51.448;6.260;2023-03-14T08:35:52;10.50;99.90
19025;DHT22;9645;51.448;6.260;2023-03-14T08:38:19;9.30;99.90
19025;DHT22;9645;51.448;6.260;2023-03-14T08:40:46;9.20;99.90
19025;DHT22;9645;51.448;6.260;2023-03-14T08:43:15;8.90;99.90
19025;DHT22;9645;51.448;6.260;2023-03-14T08:45:42;8.70;99.90
19025;DHT22;9645;51.448;6.260;2023-03-14T08:48:09;8.60;99.90
19025;DHT22;9645;51.448;6.260;2023-03-14T08:50:36;8.50;99.90
19025;DHT22;9645;51.448;6.260;2023-03-14T08:53:03;8.50;99.90
19025;DHT22;9645;51.448;6.260;2023-03-14T08:55:30;8.50;99.90
19025;DHT22;9645;51.448;6.260;2023-03-14T08:57:57;8.40;99.90
19025;DHT22;9645;51.448;6.260;2023-03-14T09:00:26;8.40;99.90
19025;DHT22;9645;51.448;6.260;2023-03-14T09:02:52;8.40;99.90
19025;DHT22;9645;51.448;6.260;2023-03-14T09:05:20;8.40;99.90
19025;DHT22;9645;51.448;6.260;2023-03-14T09:07:46;8.40;99.90
19025;DHT22;9645;51.448;6.260;2023-03-14T09:10:13;8.40;99.90
19025;DHT22;9645;51.448;6.260;2023-03-14T09:12:40;8.50;99.90
19025;DHT22;9645;51.448;6.260;2023-03-14T09:15:08;8.60;99.90
19025;DHT22;9645;51.448;6.260;2023-03-14T09:17:37;8.70;99.90
19025;DHT22;9645;51.448;6.260;2023-03-14T09:20:04;8.80;99.90
19025;DHT22;9645;51.448;6.260;2023-03-14T09:22:34;8.90;99.90
19025;DHT22;9645;51.448;6.260;2023-03-14T09:25:02;8.90;99.90
19025;DHT22;9645;51.448;6.260;2023-03-14T09:27:29;9.10;99.90
19025;DHT22;9645;51.448;6.260;2023-03-14T09:29:56;9.20;99.90
19025;DHT22;9645;51.448;6.260;2023-03-14T09:32:23;10.80;99.90
19025;DHT22;9645;51.448;6.260;2023-03-14T09:34:51;9.00;99.90
19025;DHT22;9645;51.448;6.260;2023-03-14T09:37:18;10.00;99.90
19025;DHT22;9645;51.448;6.260;2023-03-14T09:39:46;8.90;99.90
19025;DHT22;9645;51.448;6.260;2023-03-14T09:42:15;8.90;99.90
19025;DHT22;9645;51.448;6.260;2023-03-14T09:44:51;9.00;99.90
19025;DHT22;9645;51.448;6.260;2023-03-14T09:47:19;8.90;99.90
19025;DHT22;9645;51.448;6.260;2023-03-14T09:49:47;8.90;99.90
19025;DHT22;9645;51.448;6.260;2023-03-14T09:52:18;9.00;99.90
19025;DHT22;9645;51.448;6.260;2023-03-14T09:54:49;9.00;99.90
19025;DHT22;9645;51.448;6.260;2023-03-14T09:57:18;9.10;99.90
19025;DHT22;9645;51.448;6.260;2023-03-14T09:59:47;9.00;99.90
19025;DHT22;9645;51.448;6.260;2023-03-14T10:02:18;9.00;99.90
19025;DHT22;9645;51.448;6.260;2023-03-14T10:04:46;9.00;99.90
19025;DHT22;9645;51.448;6.260;2023-03-14T10:07:17;8.70;99.90
19025;DHT22;9645;51.448;6.260;2023-03-14T10:09:49;8.40;99.90
19025;DHT22;9645;51.448;6.260;2023-03-14T10:12:16;8.00;99.90
19025;DHT22;9645;51.448;6.260;2023-03-14T10:14:49;7.70;99.90
19025;DHT22;9645;51.448;6.260;2023-03-14T10:17:18;7.70;99.90
19025;DHT22;9645;51.448;6.260;2023-03-14T10:19:54;7.80;99.90
19025;DHT22;9645;51.448;6.260;2023-03-14T10:22:24;7.90;99.90
19025;DHT22;9645;51.448;6.260;2023-03-14T10:24:54;7.80;99.90
19025;DHT22;9645;51.448;6.260;2023-03-14T10:27:28;7.90;99.90
19025;DHT22;9645;51.448;6.260;2023-03-14T10:29:56;7.80;99.90
19025;DHT22;9645;51.448;6.260;2023-03-14T10:32:31;7.80;99.90
19025;DHT22;9645;51.448;6.260;2023-03-14T10:35:19;7.70;99.90
19025;DHT22;9645;51.448;6.260;2023-03-14T10:37:57;7.80;99.90
19025;DHT22;9645;51.448;6.260;2023-03-14T10:40:30;7.80;99.90
19025;DHT22;9645;51.448;6.260;2023-03-14T10:42:58;7.90;99.90
19025;DHT22;9645;51.448;6.260;2023-03-14T10:45:31;7.80;99.90
19025;DHT22;9645;51.448;6.260;2023-03-14T10:48:05;7.80;99.90
19025;DHT22;9645;51.448;6.260;2023-03-14T10:50:33;7.90;99.90
19025;DHT22;9645;51.448;6.260;2023-03-14T10:53:03;8.00;99.90
19025;DHT22;9645;51.448;6.260;2023-03-14T10:55:41;8.20;99.90
19025;DHT22;9645;51.448;6.260;2023-03-14T10:58:20;8.20;99.90
19025;DHT22;9645;51.448;6.260;2023-03-14T11:00:58;8.20;99.90
19025;DHT22;9645;51.448;6.260;2023-03-14T11:03:30;8.20;99.90
19025;DHT22;9645;51.448;6.260;2023-03-14T11:06:04;8.20;99.90
19025;DHT22;9645;51.448;6.260;2023-03-14T11:08:37;8.30;99.90
19025;DHT22;9645;51.448;6.260;2023-03-14T11:11:12;8.40;99.90
19025;DHT22;9645;51.448;6.260;2023-03-14T11:13:45;8.30;99.90
19025;DHT22;9645;51.448;6.260;2023-03-14T11:16:24;8.30;99.90
19025;DHT22;9645;51.448;6.260;2023-03-14T11:22:03;8.10;99.90
19025;DHT22;9645;51.448;6.260;2023-03-14T11:24:49;8.00;99.90
19025;DHT22;9645;51.448;6.260;2023-03-14T11:27:18;7.90;99.90
19025;DHT22;9645;51.448;6.260;2023-03-14T11:29:54;8.00;99.90
19025;DHT22;9645;51.448;6.260;2023-03-14T11:32:32;8.00;99.90
19025;DHT22;9645;51.448;6.260;2023-03-14T11:35:04;8.00;99.90
19025;DHT22;9645;51.448;6.260;2023-03-14T11:37:34;8.40;99.90
19025;DHT22;9645;51.448;6.260;2023-03-14T11:40:12;8.80;99.90
19025;DHT22;9645;51.448;6.260;2023-03-14T11:42:43;8.80;99.90
19025;DHT22;9645;51.448;6.260;2023-03-14T11:45:15;9.20;99.90
19025;DHT22;9645;51.448;6.260;2023-03-14T11:47:45;9.50;99.90
19025;DHT22;9645;51.448;6.260;2023-03-14T11:50:17;9.50;99.90
19025;DHT22;9645;51.448;6.260;2023-03-14T11:52:49;9.40;99.90
19025;DHT22;9645;51.448;6.260;2023-03-14T11:55:20;9.30;99.90
19025;DHT22;9645;51.448;6.260;2023-03-14T11:57:51;9.20;99.90
19025;DHT22;9645;51.448;6.260;2023-03-14T12:00:22;9.10;99.90
19025;DHT22;9645;51.448;6.260;2023-03-14T12:02:53;8.90;99.90
19025;DHT22;9645;51.448;6.260;2023-03-14T12:05:46;8.80;99.90
19025;DHT22;9645;51.448;6.260;2023-03-14T12:08:32;8.70;99.90
19025;DHT22;9645;51.448;6.260;2023-03-14T12:11:11;8.50;99.90
19025;DHT22;9645;51.448;6.260;2023-03-14T12:13:40;8.30;99.90
19025;DHT22;9645;51.448;6.260;2023-03-14T12:16:19;8.10;99.90
19025;DHT22;9645;51.448;6.260;2023-03-14T12:18:46;7.80;99.90
19025;DHT22;9645;51.448;6.260;2023-03-14T12:21:13;7.00;99.90
19025;DHT22;9645;51.448;6.260;2023-03-14T12:23:43;6.30;99.90
19025;DHT22;9645;51.448;6.260;2023-03-14T12:26:18;6.10;99.90
19025;DHT22;9645;51.448;6.260;2023-03-14T12:28:49;6.00;99.90
19025;DHT22;9645;51.448;6.260;2023-03-14T12:31:39;6.00;99.90
19025;DHT22;9645;51.448;6.260;2023-03-14T12:34:27;6.20;99.90
19025;DHT22;9645;51.448;6.260;2023-03-14T12:37:17;6.60;99.90
19025;DHT22;9645;51.448;6.260;2023-03-14T12:39:53;7.30;99.90
19025;DHT22;9645;51.448;6.260;2023-03-14T12:42:37;7.70;99.90
19025;DHT22;9645;51.448;6.260;2023-03-14T12:45:24;8.00;99.90
19025;DHT22;9645;51.448;6.260;2023-03-14T12:48:00;8.20;99.90
19025;DHT22;9645;51.448;6.260;2023-03-14T12:50:38;8.30;99.90
19025;DHT22;9645;51.448;6.260;2023-03-14T12:53:43;8.30;99.90
19025;DHT22;9645;51.448;6.260;2023-03-14T12:56:22;8.20;99.90
19025;DHT22;9645;51.448;6.260;2023-03-14T12:59:02;7.90;99.90
19025;DHT22;9645;51.448;6.260;2023-03-14T13:01:32;7.80;99.90
19025;DHT22;9645;51.448;6.260;2023-03-14T13:04:03;7.80;99.90
19025;DHT22;9645;51.448;6.260;2023-03-14T13:06:48;8.00;99.90
19025;DHT22;9645;51.448;6.260;2023-03-14T13:12:29;8.50;99.90
19025;DHT22;9645;51.448;6.260;2023-03-14T13:15:12;8.90;99.90
19025;DHT22;9645;51.448;6.260;2023-03-14T13:17:41;10.00;99.90
19025;DHT22;9645;51.448;6.260;2023-03-14T13:20:14;10.70;99.90
19025;DHT22;9645;51.448;6.260;2023-03-14T13:22:47;12.00;99.90
19025;DHT22;9645;51.448;6.260;2023-03-14T13:25:15;12.20;99.90
19025;DHT22;9645;51.448;6.260;2023-03-14T13:27:44;12.30;99.90
19025;DHT22;9645;51.448;6.260;2023-03-14T13:30:19;12.10;99.90
19025;DHT22;9645;51.448;6.260;2023-03-14T13:32:47;11.80;99.90
19025;DHT22;9645;51.448;6.260;2023-03-14T13:35:19;12.10;99.90
19025;DHT22;9645;51.448;6.260;2023-03-14T13:37:47;12.20;99.90
19025;DHT22;9645;51.448;6.260;2023-03-14T13:40:25;12.20;99.90
19025;DHT22;9645;51.448;6.260;2023-03-14T13:43:02;12.30;99.90
19025;DHT22;9645;51.448;6.260;2023-03-14T13:45:31;12.20;99.90
19025;DHT22;9645;51.448;6.260;2023-03-14T13:47:58;12.40;99.90
19025;DHT22;9645;51.448;6.260;2023-03-14T13:50:25;12.60;99.90
19025;DHT22;9645;51.448;6.260;2023-03-14T13:52:56;12.60;99.90
19025;DHT22;9645;51.448;6.260;2023-03-14T13:55:23;12.70;99.90
19025;DHT22;9645;51.448;6.260;2023-03-14T13:57:52;12.60;99.90
19025;DHT22;9645;51.448;6.260;2023-03-14T14:00:22;12.50;99.90
19025;DHT22;9645;51.448;6.260;2023-03-14T14:02:56;12.20;99.90
19025;DHT22;9645;51.448;6.260;2023-03-14T14:05:26;11.80;99.90
19025;DHT22;9645;51.448;6.260;2023-03-14T14:07:53;11.90;99.90
19025;DHT22;9645;51.448;6.260;2023-03-14T14:10:21;12.00;99.90
19025;DHT22;9645;51.448;6.260;2023-03-14T14:12:52;12.00;99.90
19025;DHT22;9645;51.448;6.260;2023-03-14T14:15:21;11.60;99.90
19025;DHT22;9645;51.448;6.260;2023-03-14T14:17:51;11.50;99.90
19025;DHT22;9645;51.448;6.260;2023-03-14T14:20:23;11.50;99.90
19025;DHT22;9645;51.448;6.260;2023-03-14T14:22:58;11.10;99.90
19025;DHT22;9645;51.448;6.260;2023-03-14T14:25:25;10.80;99.90
19025;DHT22;9645;51.448;6.260;2023-03-14T14:27:52;10.70;99.90
19025;DHT22;9645;51.448;6.260;2023-03-14T14:30:27;10.80;99.90
19025;DHT22;9645;51.448;6.260;2023-03-14T14:33:11;11.00;99.90
19025;DHT22;9645;51.448;6.260;2023-03-14T14:35:40;11.00;99.90
19025;DHT22;9645;51.448;6.260;2023-03-14T14:38:12;10.70;99.90
19025;DHT22;9645;51.448;6.260;2023-03-14T14:40:47;10.50;99.90
19025;DHT22;9645;51.448;6.260;2023-03-14T14:43:17;10.50;99.90
19025;DHT22;9645;51.448;6.260;2023-03-14T14:45:46;10.40;99.90
19025;DHT22;9645;51.448;6.260;2023-03-14T14:48:21;10.30;99.90
19025;DHT22;9645;51.448;6.260;2023-03-14T14:50:59;10.20;99.90
19025;DHT22;9645;51.448;6.260;2023-03-14T14:53:29;10.10;99.90
19025;DHT22;9645;51.448;6.260;2023-03-14T14:55:59;10.10;99.90
19025;DHT22;9645;51.448;6.260;2023-03-14T14:58:28;10.00;99.90
19025;DHT22;9645;51.448;6.260;2023-03-14T15:00:59;9.90;99.90
19025;DHT22;9645;51.448;6.260;2023-03-14T15:03:31;9.80;99.90
19025;DHT22;9645;51.448;6.260;2023-03-14T15:06:01;9.80;99.90
19025;DHT22;9645;51.448;6.260;2023-03-14T15:08:28;9.70;99.90
19025;DHT22;9645;51.448;6.260;2023-03-14T15:10:56;9.60;99.90
19025;DHT22;9645;51.448;6.260;2023-03-14T15:13:23;9.60;99.90
19025;DHT22;9645;51.448;6.260;2023-03-14T15:15:51;9.60;99.90
19025;DHT22;9645;51.448;6.260;2023-03-14T15:18:22;9.70;99.90
19025;DHT22;9645;51.448;6.260;2023-03-14T15:20:49;9.60;99.90
19025;DHT22;9645;51.448;6.260;2023-03-14T15:23:20;9.30;99.90
19025;DHT22;9645;51.448;6.260;2023-03-14T15:25:47;9.10;99.90
19025;DHT22;9645;51.448;6.260;2023-03-14T15:28:17;8.90;99.90
19025;DHT22;9645;51.448;6.260;2023-03-14T15:30:46;8.80;99.90
19025;DHT22;9645;51.448;6.260;2023-03-14T15:33:13;8.70;99.90
19025;DHT22;9645;51.448;6.260;2023-03-14T15:35:41;8.60;99.90
19025;DHT22;9645;51.448;6.260;2023-03-14T15:38:10;8.60;99.90
19025;DHT22;9645;51.448;6.260;2023-03-14T15:40:40;8.60;99.90
19025;DHT22;9645;51.448;6.260;2023-03-14T15:43:07;8.50;99.90
19025;DHT22;9645;51.448;6.260;2023-03-14T15:45:35;8.50;99.90
19025;DHT22;9645;51.448;6.260;2023-03-14T15:48:02;8.40;99.90
19025;DHT22;9645;51.448;6.260;2023-03-14T15:50:29;8.30;99.90
19025;DHT22;9645;51.448;6.260;2023-03-14T15:52:57;8.20;99.90
19025;DHT22;9645;51.448;6.260;2023-03-14T15:55:23;8.10;99.90
19025;DHT22;9645;51.448;6.260;2023-03-14T15:57:52;8.10;99.90
19025;DHT22;9645;51.448;6.260;2023-03-14T16:00:20;8.00;99.90
19025;DHT22;9645;51.448;6.260;2023-03-14T16:02:48;8.00;99.90
19025;DHT22;9645;51.448;6.260;2023-03-14T16:05:16;8.00;99.90
19025;DHT22;9645;51.448;6.260;2023-03-14T16:07:44;7.90;99.90
19025;DHT22;9645;51.448;6.260;2023-03-14T16:10:13;7.90;99.90
19025;DHT22;9645;51.448;6.260;2023-03-14T16:12:40;7.80;99.90
19025;DHT22;9645;51.448;6.260;2023-03-14T16:15:10;7.80;99.90
19025;DHT22;9645;51.448;6.260;2023-03-14T16:17:36;7.80;99.90
19025;DHT22;9645;51.448;6.260;2023-03-14T16:20:06;7.60;99.90